createdAt,value
2018-12-21T00:01:18.013Z,7.43
2018-12-21T00:06:21.672Z,7.44
2018-12-21T00:11:25.218Z,7.44
2018-12-21T00:16:28.807Z,7.42
2018-12-21T00:21:32.260Z,7.40
2018-12-21T00:26:35.680Z,7.40
2018-12-21T00:31:44.388Z,7.42
2018-12-21T00:36:53.048Z,7.46
2018-12-21T00:41:55.799Z,7.42
2018-12-21T00:47:02.006Z,7.41
2018-12-21T00:52:06.003Z,7.47
2018-12-21T00:57:09.584Z,7.50
2018-12-21T01:02:13.237Z,7.45
2018-12-21T01:07:16.776Z,7.36
2018-12-21T01:12:20.532Z,7.33
2018-12-21T01:17:24.012Z,7.26
2018-12-21T01:22:28.297Z,7.27
2018-12-21T01:27:31.785Z,7.25
2018-12-21T01:32:35.352Z,7.26
2018-12-21T01:37:38.804Z,7.29
2018-12-21T01:42:42.219Z,7.26
2018-12-21T01:47:45.737Z,7.30
2018-12-21T01:52:49.265Z,7.32
2018-12-21T01:57:52.722Z,7.37
2018-12-21T02:02:56.244Z,7.40
2018-12-21T02:07:59.909Z,7.39
2018-12-21T02:13:03.527Z,7.37
2018-12-21T02:18:07.032Z,7.41
2018-12-21T02:23:10.531Z,7.52
2018-12-21T02:28:14.172Z,7.48
2018-12-21T02:33:17.608Z,7.49
2018-12-21T02:38:21.082Z,7.49
2018-12-21T02:43:24.560Z,7.50
2018-12-21T02:48:28.106Z,7.58
2018-12-21T02:53:31.535Z,7.58
2018-12-21T02:58:35.197Z,7.57
2018-12-21T03:03:38.735Z,7.62
2018-12-21T03:08:42.328Z,7.61
2018-12-21T03:13:52.240Z,7.64
2018-12-21T03:18:56.431Z,7.60
2018-12-21T03:23:59.989Z,7.64
2018-12-21T03:29:03.565Z,7.67
2018-12-21T03:34:07.011Z,7.54
2018-12-21T03:39:10.789Z,7.47
2018-12-21T03:44:14.548Z,7.47
2018-12-21T03:49:18.086Z,7.50
2018-12-21T03:54:21.503Z,7.49
2018-12-21T03:59:25.259Z,7.48
2018-12-21T04:04:28.720Z,7.48
2018-12-21T04:09:32.141Z,7.46
2018-12-21T04:14:35.652Z,7.44
2018-12-21T04:19:39.316Z,7.48
2018-12-21T04:24:42.960Z,7.39
2018-12-21T04:29:46.374Z,7.43
2018-12-21T04:34:49.873Z,7.39
2018-12-21T04:39:53.313Z,7.36
2018-12-21T04:44:56.740Z,7.39
2018-12-21T04:50:00.383Z,7.36
2018-12-21T04:55:04.217Z,7.37
2018-12-21T05:00:08.133Z,7.39
2018-12-21T05:05:11.611Z,7.42
2018-12-21T05:10:15.158Z,7.46
2018-12-21T05:15:18.646Z,7.44
2018-12-21T05:20:22.169Z,7.32
2018-12-21T05:25:25.621Z,7.22
2018-12-21T05:30:29.085Z,7.10
2018-12-21T05:35:32.561Z,7.03
2018-12-21T05:40:36.011Z,6.94
2018-12-21T05:45:39.532Z,6.88
2018-12-21T05:50:43.107Z,6.91
2018-12-21T05:55:46.540Z,6.86
2018-12-21T06:00:50.124Z,6.83
2018-12-21T06:05:53.842Z,6.77
2018-12-21T06:10:57.259Z,6.75
2018-12-21T06:16:00.764Z,6.79
2018-12-21T06:21:04.240Z,6.84
2018-12-21T06:26:07.802Z,6.80
2018-12-21T06:31:11.407Z,6.81
2018-12-21T06:36:14.878Z,6.84
2018-12-21T06:41:18.400Z,6.82
2018-12-21T06:46:22.055Z,6.85
2018-12-21T06:51:26.199Z,6.87
2018-12-21T06:56:29.616Z,6.94
2018-12-21T07:01:33.208Z,6.92
2018-12-21T07:06:36.940Z,6.93
2018-12-21T07:11:40.392Z,6.93
2018-12-21T07:16:44.055Z,6.93
2018-12-21T07:21:47.595Z,6.99
2018-12-21T07:26:51.133Z,7.00
2018-12-21T07:31:54.812Z,7.04
2018-12-21T07:36:58.338Z,7.05
2018-12-21T07:42:01.845Z,7.09
2018-12-21T07:47:05.268Z,7.11
2018-12-21T07:52:08.800Z,7.15
2018-12-21T07:57:12.232Z,7.15
2018-12-21T08:02:15.748Z,7.20
2018-12-21T08:07:19.405Z,7.29
2018-12-21T08:12:22.835Z,7.28
2018-12-21T08:17:26.271Z,7.27
2018-12-21T08:22:29.920Z,7.31
2018-12-21T08:27:33.500Z,7.34
2018-12-21T08:32:37.136Z,7.36
2018-12-21T08:37:40.680Z,7.36
2018-12-21T08:42:44.936Z,7.33
2018-12-21T08:47:48.432Z,7.38
2018-12-21T08:52:52.337Z,7.38
2018-12-21T08:57:55.787Z,7.41
2018-12-21T09:02:59.332Z,7.43
2018-12-21T09:08:02.778Z,7.45
2018-12-21T09:13:06.272Z,7.51
2018-12-21T09:18:09.788Z,7.55
2018-12-21T09:23:13.332Z,7.54
2018-12-21T09:28:16.789Z,7.59
2018-12-21T09:33:20.272Z,7.62
2018-12-21T09:38:23.699Z,7.64
2018-12-21T09:43:27.265Z,7.65
2018-12-21T09:48:30.680Z,7.73
2018-12-21T09:53:34.271Z,7.76
2018-12-21T09:58:37.760Z,7.80
2018-12-21T10:03:41.320Z,7.88
2018-12-21T10:08:44.740Z,7.97
2018-12-21T10:13:48.406Z,8.14
2018-12-21T10:18:51.841Z,8.26
2018-12-21T10:23:55.336Z,8.55
2018-12-21T10:28:58.761Z,8.73
2018-12-21T10:34:02.188Z,8.97
2018-12-21T10:39:07.467Z,9.13
2018-12-21T10:44:10.924Z,9.29
2018-12-21T10:49:20.893Z,9.52
2018-12-21T10:54:26.958Z,9.72
2018-12-21T10:59:29.960Z,9.83
2018-12-21T11:04:33.589Z,9.88
2018-12-21T11:09:37.084Z,9.98
2018-12-21T11:14:40.895Z,10.12
2018-12-21T11:19:44.453Z,10.14
2018-12-21T11:24:49.029Z,10.11
2018-12-21T11:29:52.559Z,10.24
2018-12-21T11:34:56.101Z,10.26
2018-12-21T11:39:59.779Z,10.38
2018-12-21T11:45:03.248Z,10.51
2018-12-21T11:50:09.101Z,10.54
2018-12-21T11:55:12.624Z,10.54
2018-12-21T12:00:16.142Z,10.54
2018-12-21T12:05:19.681Z,10.67
2018-12-21T12:10:23.123Z,10.73
2018-12-21T12:15:28.586Z,10.85
2018-12-21T12:20:32.188Z,10.90
2018-12-21T12:25:35.664Z,11.00
2018-12-21T12:30:39.094Z,11.01
2018-12-21T12:35:42.644Z,11.10
2018-12-21T12:40:46.199Z,11.12
2018-12-21T12:45:49.781Z,11.14
2018-12-21T12:50:53.221Z,11.15
2018-12-21T12:55:56.828Z,11.11
2018-12-21T13:01:00.416Z,11.16
2018-12-21T13:06:04.120Z,11.23
2018-12-21T13:11:07.607Z,11.01
2018-12-21T13:16:11.088Z,10.94
2018-12-21T13:21:14.584Z,10.76
2018-12-21T13:26:18.077Z,10.78
2018-12-21T13:31:21.564Z,10.79
2018-12-21T13:36:25.076Z,10.76
2018-12-21T13:41:28.648Z,10.84
2018-12-21T13:46:32.151Z,10.92
2018-12-21T13:51:35.676Z,10.95
2018-12-21T13:56:39.133Z,10.98
2018-12-21T14:01:42.625Z,10.99
2018-12-21T14:06:52.564Z,11.11
2018-12-21T14:11:56.009Z,11.31
2018-12-21T14:16:59.624Z,11.38
2018-12-21T14:22:03.124Z,11.53
2018-12-21T14:27:06.612Z,11.54
2018-12-21T14:32:10.133Z,11.52
2018-12-21T14:37:13.677Z,11.59
2018-12-21T14:42:17.243Z,11.53
2018-12-21T14:47:20.709Z,11.55
2018-12-21T14:53:26.663Z,11.53
2018-12-21T14:58:30.083Z,11.56
2018-12-21T15:03:33.484Z,11.54
2018-12-21T15:08:37.009Z,11.49
2018-12-21T15:13:40.416Z,11.52
2018-12-21T15:18:44.042Z,11.56
2018-12-21T15:23:47.675Z,11.48
2018-12-21T15:34:00.686Z,11.52
2018-12-21T15:39:06.175Z,11.50
2018-12-21T15:44:09.616Z,11.52
2018-12-21T15:49:13.028Z,11.49
2018-12-21T15:54:16.673Z,11.50
2018-12-21T15:59:20.075Z,11.64
2018-12-21T16:04:23.604Z,11.65
2018-12-21T16:09:28.168Z,11.70
2018-12-21T16:14:34.669Z,11.60
2018-12-21T16:19:37.121Z,11.67
2018-12-21T16:24:40.648Z,11.65
2018-12-21T16:29:44.118Z,11.68
2018-12-21T16:34:47.746Z,11.64
2018-12-21T16:39:51.368Z,11.67
2018-12-21T16:44:54.884Z,11.81
2018-12-21T16:49:58.489Z,11.79
2018-12-21T16:55:02.095Z,11.78
2018-12-21T17:00:09.364Z,11.81
2018-12-21T17:05:13.136Z,11.80
2018-12-21T17:10:20.177Z,11.82
2018-12-21T17:15:23.837Z,11.77
2018-12-21T17:20:27.597Z,11.76
2018-12-21T17:25:32.244Z,11.73
2018-12-21T17:30:35.920Z,11.72
2018-12-21T17:35:39.632Z,11.66
2018-12-21T17:40:43.132Z,11.67
2018-12-21T17:45:46.760Z,11.67
2018-12-21T17:50:50.288Z,11.68
2018-12-21T17:55:53.708Z,11.78
2018-12-21T18:00:57.432Z,11.79
2018-12-21T18:06:00.868Z,11.74
2018-12-21T18:11:04.650Z,11.68
2018-12-21T18:16:08.076Z,11.70
2018-12-21T18:21:11.500Z,11.73
2018-12-21T18:26:15.188Z,11.73
2018-12-21T18:31:26.724Z,11.66
2018-12-21T18:36:30.251Z,11.70
2018-12-21T18:41:33.751Z,11.69
2018-12-21T18:46:37.180Z,11.68
2018-12-21T18:51:40.751Z,11.70
2018-12-21T18:56:55.371Z,11.77
2018-12-21T19:01:58.789Z,11.67
2018-12-21T19:07:02.490Z,11.78
2018-12-21T19:12:06.377Z,11.69
2018-12-21T19:17:09.893Z,11.78
2018-12-21T19:22:13.453Z,11.71
2018-12-21T19:27:17.043Z,11.75
2018-12-21T19:32:20.532Z,11.66
2018-12-21T19:37:24.804Z,11.61
2018-12-21T19:42:28.387Z,11.73
2018-12-21T19:47:31.844Z,11.57
2018-12-21T19:52:35.516Z,11.63
2018-12-21T19:57:38.928Z,11.70
2018-12-21T20:02:42.586Z,11.57
2018-12-21T20:07:46.060Z,11.56
2018-12-21T20:12:49.795Z,11.50
2018-12-21T20:17:53.421Z,11.50
2018-12-21T20:22:56.951Z,11.53
2018-12-21T20:28:00.452Z,11.53
2018-12-21T20:33:04.192Z,11.59
2018-12-21T20:38:07.763Z,11.46
2018-12-21T20:43:11.477Z,11.59
2018-12-21T20:48:14.990Z,11.50
2018-12-21T20:53:18.503Z,11.45
2018-12-21T20:58:56.997Z,11.46
2018-12-21T21:04:00.667Z,11.35
2018-12-21T21:09:05.381Z,11.44
2018-12-21T21:14:10.271Z,11.37
2018-12-21T21:19:14.200Z,11.40
2018-12-21T21:24:17.719Z,11.44
2018-12-21T21:29:21.360Z,11.44
2018-12-21T21:34:24.832Z,11.32
2018-12-21T21:39:28.336Z,11.34
2018-12-21T21:44:31.955Z,11.39
2018-12-21T21:49:35.460Z,11.31
2018-12-21T21:54:39.020Z,11.36
2018-12-21T21:59:42.620Z,11.26
2018-12-21T22:04:46.137Z,11.22
2018-12-21T22:09:49.828Z,11.14
2018-12-21T22:14:53.360Z,11.08
2018-12-21T22:19:57.111Z,10.99
2018-12-21T22:25:00.633Z,10.95
2018-12-21T22:30:06.348Z,10.91
2018-12-21T22:35:10.055Z,10.94
2018-12-21T22:40:13.769Z,10.96
2018-12-21T22:45:17.298Z,10.87
2018-12-21T22:50:21.471Z,11.01
2018-12-21T22:55:24.920Z,10.90
2018-12-21T23:00:34.866Z,10.81
2018-12-21T23:05:38.376Z,10.84
2018-12-21T23:10:41.785Z,10.73
2018-12-21T23:15:45.455Z,10.61
2018-12-21T23:20:49.071Z,10.53
2018-12-21T23:25:52.576Z,10.50
2018-12-21T23:30:56.024Z,10.49
2018-12-21T23:36:00.128Z,10.45
2018-12-21T23:41:03.547Z,10.42
2018-12-21T23:46:07.176Z,10.33
2018-12-21T23:51:10.734Z,10.30
2018-12-21T23:56:14.484Z,10.29
